sensor_id;sensor_type;location;lat;lon;timestamp;P1;durP1;ratioP1;P2;durP2;ratioP2
2542;SDS011;1116;51.502;7.414;2023-07-28T00:00:16;3.17;;;2.97;;
2542;SDS011;1116;51.502;7.414;2023-07-28T00:02:48;5.80;;;3.03;;
2542;SDS011;1116;51.502;7.414;2023-07-28T00:05:19;3.50;;;3.20;;
2542;SDS011;1116;51.502;7.414;2023-07-28T00:07:50;4.60;;;2.90;;
2542;SDS011;1116;51.502;7.414;2023-07-28T00:10:21;5.87;;;3.37;;
2542;SDS011;1116;51.502;7.414;2023-07-28T00:12:54;3.10;;;2.90;;
2542;SDS011;1116;51.502;7.414;2023-07-28T00:15:26;5.10;;;2.83;;
2542;SDS011;1116;51.502;7.414;2023-07-28T00:17:57;3.53;;;2.70;;
2542;SDS011;1116;51.502;7.414;2023-07-28T00:20:29;3.43;;;3.13;;
2542;SDS011;1116;51.502;7.414;2023-07-28T00:23:00;3.07;;;2.83;;
2542;SDS011;1116;51.502;7.414;2023-07-28T00:25:31;3.33;;;3.03;;
2542;SDS011;1116;51.502;7.414;2023-07-28T00:28:05;4.23;;;3.10;;
2542;SDS011;1116;51.502;7.414;2023-07-28T00:30:36;3.87;;;3.57;;
2542;SDS011;1116;51.502;7.414;2023-07-28T00:33:07;4.50;;;4.00;;
2542;SDS011;1116;51.502;7.414;2023-07-28T00:35:39;3.87;;;3.50;;
2542;SDS011;1116;51.502;7.414;2023-07-28T00:38:10;5.97;;;4.10;;
2542;SDS011;1116;51.502;7.414;2023-07-28T00:40:41;5.10;;;3.97;;
2542;SDS011;1116;51.502;7.414;2023-07-28T00:43:17;6.20;;;4.00;;
2542;SDS011;1116;51.502;7.414;2023-07-28T00:45:49;4.37;;;3.70;;
2542;SDS011;1116;51.502;7.414;2023-07-28T00:48:23;4.17;;;3.63;;
2542;SDS011;1116;51.502;7.414;2023-07-28T00:50:54;5.17;;;3.70;;
2542;SDS011;1116;51.502;7.414;2023-07-28T00:53:25;3.83;;;3.43;;
2542;SDS011;1116;51.502;7.414;2023-07-28T00:55:57;2.93;;;2.73;;
2542;SDS011;1116;51.502;7.414;2023-07-28T00:58:31;4.03;;;3.17;;
2542;SDS011;1116;51.502;7.414;2023-07-28T01:01:02;2.90;;;2.60;;
2542;SDS011;1116;51.502;7.414;2023-07-28T01:03:34;3.20;;;2.90;;
2542;SDS011;1116;51.502;7.414;2023-07-28T01:06:11;2.97;;;2.77;;
2542;SDS011;1116;51.502;7.414;2023-07-28T01:08:48;3.90;;;2.60;;
2542;SDS011;1116;51.502;7.414;2023-07-28T01:11:24;3.17;;;2.27;;
2542;SDS011;1116;51.502;7.414;2023-07-28T01:13:57;1.83;;;1.63;;
2542;SDS011;1116;51.502;7.414;2023-07-28T01:16:28;2.60;;;1.80;;
2542;SDS011;1116;51.502;7.414;2023-07-28T01:19:00;3.27;;;1.90;;
2542;SDS011;1116;51.502;7.414;2023-07-28T01:21:31;1.60;;;1.50;;
2542;SDS011;1116;51.502;7.414;2023-07-28T01:24:05;1.80;;;1.70;;
2542;SDS011;1116;51.502;7.414;2023-07-28T01:26:46;2.00;;;1.73;;
2542;SDS011;1116;51.502;7.414;2023-07-28T01:29:18;1.83;;;1.47;;
2542;SDS011;1116;51.502;7.414;2023-07-28T01:31:50;1.90;;;1.60;;
2542;SDS011;1116;51.502;7.414;2023-07-28T01:34:22;1.70;;;1.60;;
2542;SDS011;1116;51.502;7.414;2023-07-28T01:36:53;3.80;;;1.60;;
2542;SDS011;1116;51.502;7.414;2023-07-28T01:39:24;2.23;;;1.67;;
2542;SDS011;1116;51.502;7.414;2023-07-28T01:41:59;1.87;;;1.77;;
2542;SDS011;1116;51.502;7.414;2023-07-28T01:44:30;2.50;;;1.70;;
2542;SDS011;1116;51.502;7.414;2023-07-28T01:47:01;1.50;;;1.40;;
2542;SDS011;1116;51.502;7.414;2023-07-28T01:49:32;2.13;;;1.80;;
2542;SDS011;1116;51.502;7.414;2023-07-28T01:52:03;2.10;;;1.77;;
2542;SDS011;1116;51.502;7.414;2023-07-28T01:54:34;2.90;;;2.20;;
2542;SDS011;1116;51.502;7.414;2023-07-28T01:57:08;2.13;;;1.77;;
2542;SDS011;1116;51.502;7.414;2023-07-28T01:59:39;2.30;;;2.10;;
2542;SDS011;1116;51.502;7.414;2023-07-28T02:02:11;4.23;;;1.97;;
2542;SDS011;1116;51.502;7.414;2023-07-28T02:04:42;1.97;;;1.87;;
2542;SDS011;1116;51.502;7.414;2023-07-28T02:07:13;1.73;;;1.63;;
2542;SDS011;1116;51.502;7.414;2023-07-28T02:09:44;2.03;;;1.83;;
2542;SDS011;1116;51.502;7.414;2023-07-28T02:12:18;3.20;;;2.00;;
2542;SDS011;1116;51.502;7.414;2023-07-28T02:14:49;2.03;;;1.90;;
2542;SDS011;1116;51.502;7.414;2023-07-28T02:17:21;2.00;;;1.80;;
2542;SDS011;1116;51.502;7.414;2023-07-28T02:19:52;2.53;;;1.60;;
2542;SDS011;1116;51.502;7.414;2023-07-28T02:22:23;2.37;;;2.10;;
2542;SDS011;1116;51.502;7.414;2023-07-28T02:24:54;3.47;;;1.60;;
2542;SDS011;1116;51.502;7.414;2023-07-28T02:27:30;2.37;;;2.07;;
2542;SDS011;1116;51.502;7.414;2023-07-28T02:30:02;2.40;;;2.00;;
2542;SDS011;1116;51.502;7.414;2023-07-28T02:32:34;2.30;;;1.90;;
2542;SDS011;1116;51.502;7.414;2023-07-28T02:35:06;4.20;;;1.87;;
2542;SDS011;1116;51.502;7.414;2023-07-28T02:37:38;2.93;;;2.03;;
2542;SDS011;1116;51.502;7.414;2023-07-28T02:40:10;1.70;;;1.50;;
2542;SDS011;1116;51.502;7.414;2023-07-28T02:42:45;1.70;;;1.60;;
2542;SDS011;1116;51.502;7.414;2023-07-28T02:45:18;1.67;;;1.53;;
2542;SDS011;1116;51.502;7.414;2023-07-28T02:47:49;2.33;;;1.20;;
2542;SDS011;1116;51.502;7.414;2023-07-28T02:50:20;1.60;;;1.50;;
2542;SDS011;1116;51.502;7.414;2023-07-28T02:52:52;1.50;;;1.40;;
2542;SDS011;1116;51.502;7.414;2023-07-28T02:55:23;1.43;;;1.33;;
2542;SDS011;1116;51.502;7.414;2023-07-28T02:57:57;3.00;;;1.20;;
2542;SDS011;1116;51.502;7.414;2023-07-28T03:00:28;1.93;;;1.30;;
2542;SDS011;1116;51.502;7.414;2023-07-28T03:02:59;2.60;;;1.20;;
2542;SDS011;1116;51.502;7.414;2023-07-28T03:05:30;1.37;;;1.17;;
2542;SDS011;1116;51.502;7.414;2023-07-28T03:08:01;1.97;;;1.33;;
2542;SDS011;1116;51.502;7.414;2023-07-28T03:10:33;1.10;;;1.10;;
2542;SDS011;1116;51.502;7.414;2023-07-28T03:13:06;1.93;;;1.33;;
2542;SDS011;1116;51.502;7.414;2023-07-28T03:15:37;2.10;;;1.27;;
2542;SDS011;1116;51.502;7.414;2023-07-28T03:18:08;1.27;;;1.10;;
2542;SDS011;1116;51.502;7.414;2023-07-28T03:20:39;1.27;;;1.10;;
2542;SDS011;1116;51.502;7.414;2023-07-28T03:23:10;1.77;;;1.10;;
2542;SDS011;1116;51.502;7.414;2023-07-28T03:25:41;1.30;;;1.20;;
2542;SDS011;1116;51.502;7.414;2023-07-28T03:28:15;1.13;;;1.03;;
2542;SDS011;1116;51.502;7.414;2023-07-28T03:30:46;1.53;;;0.90;;
2542;SDS011;1116;51.502;7.414;2023-07-28T03:33:17;1.17;;;1.00;;
2542;SDS011;1116;51.502;7.414;2023-07-28T03:35:48;1.60;;;1.33;;
2542;SDS011;1116;51.502;7.414;2023-07-28T03:38:19;1.93;;;1.27;;
2542;SDS011;1116;51.502;7.414;2023-07-28T03:40:51;2.00;;;1.60;;
2542;SDS011;1116;51.502;7.414;2023-07-28T03:43:26;3.07;;;1.37;;
2542;SDS011;1116;51.502;7.414;2023-07-28T03:45:57;1.20;;;1.10;;
2542;SDS011;1116;51.502;7.414;2023-07-28T03:48:28;1.70;;;1.23;;
2542;SDS011;1116;51.502;7.414;2023-07-28T03:50:59;1.40;;;1.30;;
2542;SDS011;1116;51.502;7.414;2023-07-28T03:53:30;1.40;;;1.20;;
2542;SDS011;1116;51.502;7.414;2023-07-28T03:56:03;2.70;;;1.30;;
2542;SDS011;1116;51.502;7.414;2023-07-28T03:58:37;1.20;;;1.10;;
2542;SDS011;1116;51.502;7.414;2023-07-28T04:01:08;2.27;;;1.20;;
2542;SDS011;1116;51.502;7.414;2023-07-28T04:03:39;0.80;;;0.80;;
2542;SDS011;1116;51.502;7.414;2023-07-28T04:06:10;2.00;;;0.90;;
2542;SDS011;1116;51.502;7.414;2023-07-28T04:08:42;1.50;;;1.40;;
2542;SDS011;1116;51.502;7.414;2023-07-28T04:11:13;1.07;;;1.07;;
2542;SDS011;1116;51.502;7.414;2023-07-28T04:13:46;1.00;;;0.80;;
2542;SDS011;1116;51.502;7.414;2023-07-28T04:16:17;1.40;;;0.93;;
2542;SDS011;1116;51.502;7.414;2023-07-28T04:18:48;2.30;;;1.10;;
2542;SDS011;1116;51.502;7.414;2023-07-28T04:21:20;1.07;;;0.90;;
2542;SDS011;1116;51.502;7.414;2023-07-28T04:23:51;2.27;;;1.40;;
2542;SDS011;1116;51.502;7.414;2023-07-28T04:26:22;1.00;;;1.00;;
2542;SDS011;1116;51.502;7.414;2023-07-28T04:28:57;1.53;;;0.80;;
2542;SDS011;1116;51.502;7.414;2023-07-28T04:31:28;1.60;;;1.10;;
2542;SDS011;1116;51.502;7.414;2023-07-28T04:33:59;0.97;;;0.70;;
2542;SDS011;1116;51.502;7.414;2023-07-28T04:36:31;1.10;;;1.00;;
2542;SDS011;1116;51.502;7.414;2023-07-28T04:39:03;2.00;;;1.20;;
2542;SDS011;1116;51.502;7.414;2023-07-28T04:41:34;1.27;;;1.17;;
2542;SDS011;1116;51.502;7.414;2023-07-28T04:44:07;1.37;;;1.27;;
2542;SDS011;1116;51.502;7.414;2023-07-28T04:46:38;1.20;;;1.10;;
2542;SDS011;1116;51.502;7.414;2023-07-28T04:49:09;2.00;;;1.40;;
2542;SDS011;1116;51.502;7.414;2023-07-28T04:51:40;1.60;;;1.50;;
2542;SDS011;1116;51.502;7.414;2023-07-28T04:54:11;1.73;;;1.60;;
2542;SDS011;1116;51.502;7.414;2023-07-28T04:56:42;1.37;;;1.23;;
2542;SDS011;1116;51.502;7.414;2023-07-28T04:59:16;1.30;;;1.20;;
2542;SDS011;1116;51.502;7.414;2023-07-28T05:01:47;1.30;;;1.20;;
2542;SDS011;1116;51.502;7.414;2023-07-28T05:04:18;1.53;;;1.20;;
2542;SDS011;1116;51.502;7.414;2023-07-28T05:06:52;0.90;;;0.80;;
2542;SDS011;1116;51.502;7.414;2023-07-28T05:09:23;1.27;;;1.17;;
2542;SDS011;1116;51.502;7.414;2023-07-28T05:11:57;1.07;;;0.97;;
2542;SDS011;1116;51.502;7.414;2023-07-28T05:14:30;1.30;;;1.20;;
2542;SDS011;1116;51.502;7.414;2023-07-28T05:17:01;1.00;;;0.90;;
2542;SDS011;1116;51.502;7.414;2023-07-28T05:19:32;0.97;;;0.90;;
2542;SDS011;1116;51.502;7.414;2023-07-28T05:22:04;1.07;;;1.00;;
2542;SDS011;1116;51.502;7.414;2023-07-28T05:24:35;1.40;;;0.93;;
2542;SDS011;1116;51.502;7.414;2023-07-28T05:27:06;1.10;;;1.00;;
2542;SDS011;1116;51.502;7.414;2023-07-28T05:29:40;0.90;;;0.87;;
2542;SDS011;1116;51.502;7.414;2023-07-28T05:32:13;1.20;;;1.00;;
2542;SDS011;1116;51.502;7.414;2023-07-28T05:34:44;3.37;;;1.10;;
2542;SDS011;1116;51.502;7.414;2023-07-28T05:37:15;1.47;;;1.10;;
2542;SDS011;1116;51.502;7.414;2023-07-28T05:39:47;1.20;;;1.07;;
2542;SDS011;1116;51.502;7.414;2023-07-28T05:42:18;1.97;;;1.57;;
2542;SDS011;1116;51.502;7.414;2023-07-28T05:44:52;1.00;;;1.00;;
2542;SDS011;1116;51.502;7.414;2023-07-28T05:47:23;1.20;;;1.10;;
2542;SDS011;1116;51.502;7.414;2023-07-28T05:49:54;1.73;;;1.00;;
2542;SDS011;1116;51.502;7.414;2023-07-28T05:52:25;1.50;;;1.00;;
2542;SDS011;1116;51.502;7.414;2023-07-28T05:54:56;1.07;;;0.80;;
2542;SDS011;1116;51.502;7.414;2023-07-28T05:57:27;1.17;;;0.90;;
2542;SDS011;1116;51.502;7.414;2023-07-28T06:00:01;1.00;;;0.90;;
2542;SDS011;1116;51.502;7.414;2023-07-28T06:02:32;1.43;;;1.00;;
2542;SDS011;1116;51.502;7.414;2023-07-28T06:05:03;1.37;;;1.20;;
2542;SDS011;1116;51.502;7.414;2023-07-28T06:07:35;1.00;;;0.90;;
2542;SDS011;1116;51.502;7.414;2023-07-28T06:10:07;2.50;;;0.90;;
2542;SDS011;1116;51.502;7.414;2023-07-28T06:12:38;1.23;;;1.13;;
2542;SDS011;1116;51.502;7.414;2023-07-28T06:15:12;1.40;;;1.30;;
2542;SDS011;1116;51.502;7.414;2023-07-28T06:17:43;1.73;;;1.50;;
2542;SDS011;1116;51.502;7.414;2023-07-28T06:20:14;2.23;;;2.10;;
2542;SDS011;1116;51.502;7.414;2023-07-28T06:22:45;7.87;;;2.27;;
2542;SDS011;1116;51.502;7.414;2023-07-28T06:28:16;2.37;;;2.17;;
2542;SDS011;1116;51.502;7.414;2023-07-28T06:30:52;4.83;;;2.80;;
2542;SDS011;1116;51.502;7.414;2023-07-28T06:33:24;3.33;;;2.73;;
2542;SDS011;1116;51.502;7.414;2023-07-28T06:35:55;2.87;;;2.67;;
2542;SDS011;1116;51.502;7.414;2023-07-28T06:38:26;3.40;;;3.10;;
2542;SDS011;1116;51.502;7.414;2023-07-28T06:40:57;4.03;;;3.60;;
2542;SDS011;1116;51.502;7.414;2023-07-28T06:43:28;4.20;;;3.50;;
2542;SDS011;1116;51.502;7.414;2023-07-28T06:46:02;4.10;;;3.60;;
2542;SDS011;1116;51.502;7.414;2023-07-28T06:48:33;5.53;;;3.97;;
2542;SDS011;1116;51.502;7.414;2023-07-28T06:51:04;6.00;;;3.70;;
2542;SDS011;1116;51.502;7.414;2023-07-28T06:53:34;4.10;;;3.70;;
2542;SDS011;1116;51.502;7.414;2023-07-28T06:56:05;5.07;;;4.43;;
2542;SDS011;1116;51.502;7.414;2023-07-28T06:58:36;4.40;;;4.10;;
2542;SDS011;1116;51.502;7.414;2023-07-28T07:01:10;4.40;;;4.00;;
2542;SDS011;1116;51.502;7.414;2023-07-28T07:03:41;5.10;;;4.20;;
2542;SDS011;1116;51.502;7.414;2023-07-28T07:06:12;4.80;;;4.27;;
2542;SDS011;1116;51.502;7.414;2023-07-28T07:08:44;3.90;;;3.50;;
2542;SDS011;1116;51.502;7.414;2023-07-28T07:11:15;5.60;;;3.80;;
2542;SDS011;1116;51.502;7.414;2023-07-28T07:13:46;3.60;;;3.30;;
2542;SDS011;1116;51.502;7.414;2023-07-28T07:16:19;3.60;;;3.30;;
2542;SDS011;1116;51.502;7.414;2023-07-28T07:18:51;4.33;;;3.93;;
2542;SDS011;1116;51.502;7.414;2023-07-28T07:21:22;4.37;;;3.97;;
2542;SDS011;1116;51.502;7.414;2023-07-28T07:23:54;4.30;;;4.00;;
2542;SDS011;1116;51.502;7.414;2023-07-28T07:26:24;3.97;;;3.67;;
2542;SDS011;1116;51.502;7.414;2023-07-28T07:28:56;3.83;;;3.53;;
2542;SDS011;1116;51.502;7.414;2023-07-28T07:31:29;4.07;;;3.67;;
2542;SDS011;1116;51.502;7.414;2023-07-28T07:34:01;3.97;;;3.57;;
2542;SDS011;1116;51.502;7.414;2023-07-28T07:36:32;4.37;;;3.97;;
2542;SDS011;1116;51.502;7.414;2023-07-28T07:39:04;5.20;;;4.70;;
2542;SDS011;1116;51.502;7.414;2023-07-28T07:41:36;5.37;;;4.97;;
2542;SDS011;1116;51.502;7.414;2023-07-28T07:44:07;6.20;;;5.70;;
2542;SDS011;1116;51.502;7.414;2023-07-28T07:46:40;5.67;;;5.27;;
2542;SDS011;1116;51.502;7.414;2023-07-28T07:49:14;6.27;;;5.70;;
2542;SDS011;1116;51.502;7.414;2023-07-28T07:51:45;6.23;;;5.63;;
2542;SDS011;1116;51.502;7.414;2023-07-28T07:54:16;6.30;;;5.47;;
2542;SDS011;1116;51.502;7.414;2023-07-28T07:56:47;6.20;;;5.70;;
2542;SDS011;1116;51.502;7.414;2023-07-28T07:59:18;5.63;;;5.10;;
2542;SDS011;1116;51.502;7.414;2023-07-28T08:01:52;7.10;;;6.40;;
2542;SDS011;1116;51.502;7.414;2023-07-28T08:04:23;6.90;;;6.30;;
2542;SDS011;1116;51.502;7.414;2023-07-28T08:06:55;6.90;;;6.30;;
2542;SDS011;1116;51.502;7.414;2023-07-28T08:09:26;7.40;;;6.70;;
2542;SDS011;1116;51.502;7.414;2023-07-28T08:11:57;7.00;;;6.30;;
2542;SDS011;1116;51.502;7.414;2023-07-28T08:14:30;6.70;;;6.10;;
2542;SDS011;1116;51.502;7.414;2023-07-28T08:17:04;7.30;;;6.60;;
2542;SDS011;1116;51.502;7.414;2023-07-28T08:19:36;8.40;;;7.37;;
2542;SDS011;1116;51.502;7.414;2023-07-28T08:22:07;10.87;;;9.87;;
2542;SDS011;1116;51.502;7.414;2023-07-28T08:24:39;11.40;;;10.20;;
2542;SDS011;1116;51.502;7.414;2023-07-28T08:27:10;12.73;;;11.53;;
2542;SDS011;1116;51.502;7.414;2023-07-28T08:29:41;14.17;;;12.70;;
2542;SDS011;1116;51.502;7.414;2023-07-28T08:32:15;16.07;;;14.37;;
2542;SDS011;1116;51.502;7.414;2023-07-28T08:34:46;15.77;;;14.17;;
2542;SDS011;1116;51.502;7.414;2023-07-28T08:37:17;18.23;;;16.43;;
2542;SDS011;1116;51.502;7.414;2023-07-28T08:39:48;19.27;;;17.30;;
2542;SDS011;1116;51.502;7.414;2023-07-28T08:42:20;19.47;;;17.57;;
2542;SDS011;1116;51.502;7.414;2023-07-28T08:44:51;17.07;;;15.27;;
2542;SDS011;1116;51.502;7.414;2023-07-28T08:47:25;16.53;;;14.93;;
2542;SDS011;1116;51.502;7.414;2023-07-28T08:49:56;15.53;;;14.03;;
2542;SDS011;1116;51.502;7.414;2023-07-28T08:52:30;13.67;;;12.37;;
2542;SDS011;1116;51.502;7.414;2023-07-28T08:55:01;12.83;;;11.73;;
2542;SDS011;1116;51.502;7.414;2023-07-28T08:57:34;11.43;;;10.33;;
2542;SDS011;1116;51.502;7.414;2023-07-28T09:00:08;9.47;;;8.60;;
2542;SDS011;1116;51.502;7.414;2023-07-28T09:02:44;9.00;;;7.57;;
2542;SDS011;1116;51.502;7.414;2023-07-28T09:05:19;8.20;;;6.73;;
2542;SDS011;1116;51.502;7.414;2023-07-28T09:07:51;6.97;;;6.37;;
2542;SDS011;1116;51.502;7.414;2023-07-28T09:10:22;9.00;;;8.20;;
2542;SDS011;1116;51.502;7.414;2023-07-28T09:12:53;11.33;;;9.90;;
2542;SDS011;1116;51.502;7.414;2023-07-28T09:15:24;10.13;;;9.23;;
2542;SDS011;1116;51.502;7.414;2023-07-28T09:17:58;10.40;;;9.50;;
2542;SDS011;1116;51.502;7.414;2023-07-28T09:20:33;11.40;;;10.40;;
2542;SDS011;1116;51.502;7.414;2023-07-28T09:23:05;10.40;;;9.50;;
2542;SDS011;1116;51.502;7.414;2023-07-28T09:25:38;9.40;;;8.60;;
2542;SDS011;1116;51.502;7.414;2023-07-28T09:28:09;9.03;;;8.23;;
2542;SDS011;1116;51.502;7.414;2023-07-28T09:30:45;8.30;;;7.60;;
2542;SDS011;1116;51.502;7.414;2023-07-28T09:33:31;9.03;;;8.20;;
2542;SDS011;1116;51.502;7.414;2023-07-28T09:36:06;8.40;;;7.70;;
2542;SDS011;1116;51.502;7.414;2023-07-28T09:38:39;7.33;;;6.63;;
2542;SDS011;1116;51.502;7.414;2023-07-28T09:41:11;6.47;;;5.90;;
2542;SDS011;1116;51.502;7.414;2023-07-28T09:43:42;4.03;;;3.63;;
2542;SDS011;1116;51.502;7.414;2023-07-28T09:46:16;2.53;;;2.33;;
2542;SDS011;1116;51.502;7.414;2023-07-28T09:48:52;2.10;;;1.90;;
2542;SDS011;1116;51.502;7.414;2023-07-28T09:51:28;1.70;;;1.60;;
2542;SDS011;1116;51.502;7.414;2023-07-28T09:54:03;1.53;;;1.43;;
2542;SDS011;1116;51.502;7.414;2023-07-28T09:56:36;1.33;;;1.23;;
2542;SDS011;1116;51.502;7.414;2023-07-28T09:59:10;1.20;;;1.10;;
2542;SDS011;1116;51.502;7.414;2023-07-28T10:01:42;2.23;;;1.50;;
2542;SDS011;1116;51.502;7.414;2023-07-28T10:04:17;1.97;;;1.00;;
2542;SDS011;1116;51.502;7.414;2023-07-28T10:06:48;1.20;;;1.10;;
2542;SDS011;1116;51.502;7.414;2023-07-28T10:09:23;2.13;;;1.27;;
2542;SDS011;1116;51.502;7.414;2023-07-28T10:11:55;2.10;;;2.00;;
2542;SDS011;1116;51.502;7.414;2023-07-28T10:14:26;2.60;;;2.40;;
2542;SDS011;1116;51.502;7.414;2023-07-28T10:16:59;2.40;;;2.20;;
2542;SDS011;1116;51.502;7.414;2023-07-28T10:19:36;2.27;;;2.07;;
2542;SDS011;1116;51.502;7.414;2023-07-28T10:22:11;1.77;;;1.53;;
2542;SDS011;1116;51.502;7.414;2023-07-28T10:24:49;1.33;;;1.20;;
2542;SDS011;1116;51.502;7.414;2023-07-28T10:27:31;1.40;;;1.30;;
2542;SDS011;1116;51.502;7.414;2023-07-28T10:30:09;2.47;;;2.07;;
2542;SDS011;1116;51.502;7.414;2023-07-28T10:32:43;2.80;;;2.60;;
2542;SDS011;1116;51.502;7.414;2023-07-28T10:35:24;2.40;;;2.20;;
2542;SDS011;1116;51.502;7.414;2023-07-28T10:37:58;2.40;;;2.30;;
2542;SDS011;1116;51.502;7.414;2023-07-28T10:41:04;2.47;;;2.27;;
2542;SDS011;1116;51.502;7.414;2023-07-28T10:43:36;2.83;;;2.60;;
2542;SDS011;1116;51.502;7.414;2023-07-28T10:46:08;2.43;;;2.23;;
2542;SDS011;1116;51.502;7.414;2023-07-28T10:48:43;4.10;;;2.60;;
2542;SDS011;1116;51.502;7.414;2023-07-28T10:54:16;3.60;;;3.30;;
2542;SDS011;1116;51.502;7.414;2023-07-28T10:56:47;3.30;;;2.40;;
2542;SDS011;1116;51.502;7.414;2023-07-28T10:59:18;7.13;;;6.53;;
2542;SDS011;1116;51.502;7.414;2023-07-28T11:01:49;9.20;;;8.47;;
2542;SDS011;1116;51.502;7.414;2023-07-28T11:04:20;8.33;;;7.73;;
2542;SDS011;1116;51.502;7.414;2023-07-28T11:06:54;10.23;;;9.43;;
2542;SDS011;1116;51.502;7.414;2023-07-28T11:09:25;11.70;;;10.50;;
2542;SDS011;1116;51.502;7.414;2023-07-28T11:11:57;11.13;;;9.93;;
2542;SDS011;1116;51.502;7.414;2023-07-28T11:14:29;7.33;;;6.73;;
2542;SDS011;1116;51.502;7.414;2023-07-28T11:17:01;6.40;;;5.90;;
2542;SDS011;1116;51.502;7.414;2023-07-28T11:19:33;4.80;;;4.40;;
2542;SDS011;1116;51.502;7.414;2023-07-28T11:22:07;4.00;;;3.70;;
2542;SDS011;1116;51.502;7.414;2023-07-28T11:24:38;4.30;;;4.00;;
2542;SDS011;1116;51.502;7.414;2023-07-28T11:27:09;2.70;;;2.50;;
2542;SDS011;1116;51.502;7.414;2023-07-28T11:29:40;3.53;;;2.77;;
2542;SDS011;1116;51.502;7.414;2023-07-28T11:32:11;2.83;;;2.63;;
2542;SDS011;1116;51.502;7.414;2023-07-28T11:34:45;3.20;;;2.23;;
2542;SDS011;1116;51.502;7.414;2023-07-28T11:37:20;3.00;;;1.80;;
2542;SDS011;1116;51.502;7.414;2023-07-28T11:39:52;2.70;;;2.50;;
2542;SDS011;1116;51.502;7.414;2023-07-28T11:42:23;2.47;;;2.30;;
2542;SDS011;1116;51.502;7.414;2023-07-28T11:44:54;2.43;;;2.23;;
2542;SDS011;1116;51.502;7.414;2023-07-28T11:47:26;2.30;;;2.10;;
2542;SDS011;1116;51.502;7.414;2023-07-28T11:49:58;2.73;;;2.40;;
2542;SDS011;1116;51.502;7.414;2023-07-28T11:52:33;2.90;;;2.03;;
2542;SDS011;1116;51.502;7.414;2023-07-28T11:55:05;3.33;;;2.30;;
2542;SDS011;1116;51.502;7.414;2023-07-28T11:57:37;2.30;;;2.20;;
2542;SDS011;1116;51.502;7.414;2023-07-28T12:00:09;2.67;;;2.30;;
2542;SDS011;1116;51.502;7.414;2023-07-28T12:02:44;2.23;;;2.07;;
2542;SDS011;1116;51.502;7.414;2023-07-28T12:05:16;2.97;;;2.10;;
2542;SDS011;1116;51.502;7.414;2023-07-28T12:07:51;2.40;;;1.83;;
2542;SDS011;1116;51.502;7.414;2023-07-28T12:10:22;2.23;;;1.50;;
2542;SDS011;1116;51.502;7.414;2023-07-28T12:13:07;1.93;;;1.83;;
2542;SDS011;1116;51.502;7.414;2023-07-28T12:15:43;2.40;;;1.50;;
2542;SDS011;1116;51.502;7.414;2023-07-28T12:18:17;1.57;;;1.30;;
2542;SDS011;1116;51.502;7.414;2023-07-28T12:20:53;1.60;;;1.50;;
2542;SDS011;1116;51.502;7.414;2023-07-28T12:23:31;4.07;;;2.23;;
2542;SDS011;1116;51.502;7.414;2023-07-28T12:26:05;1.70;;;1.60;;
2542;SDS011;1116;51.502;7.414;2023-07-28T12:28:36;1.60;;;1.50;;
2542;SDS011;1116;51.502;7.414;2023-07-28T12:31:11;4.27;;;1.67;;
2542;SDS011;1116;51.502;7.414;2023-07-28T12:33:42;5.43;;;1.73;;
2542;SDS011;1116;51.502;7.414;2023-07-28T12:36:16;1.87;;;1.77;;
2542;SDS011;1116;51.502;7.414;2023-07-28T12:38:53;2.43;;;1.57;;
2542;SDS011;1116;51.502;7.414;2023-07-28T12:41:24;1.90;;;1.80;;
2542;SDS011;1116;51.502;7.414;2023-07-28T12:44:08;1.63;;;1.53;;
2542;SDS011;1116;51.502;7.414;2023-07-28T12:46:43;5.33;;;2.23;;
2542;SDS011;1116;51.502;7.414;2023-07-28T12:49:14;2.80;;;1.53;;
2542;SDS011;1116;51.502;7.414;2023-07-28T12:51:48;2.00;;;1.80;;
2542;SDS011;1116;51.502;7.414;2023-07-28T12:54:25;2.33;;;1.90;;
2542;SDS011;1116;51.502;7.414;2023-07-28T12:56:57;2.00;;;1.90;;
2542;SDS011;1116;51.502;7.414;2023-07-28T12:59:31;3.27;;;2.10;;
2542;SDS011;1116;51.502;7.414;2023-07-28T13:02:22;2.40;;;2.20;;
2542;SDS011;1116;51.502;7.414;2023-07-28T13:04:54;3.63;;;2.00;;
2542;SDS011;1116;51.502;7.414;2023-07-28T13:07:25;1.90;;;1.80;;
2542;SDS011;1116;51.502;7.414;2023-07-28T13:10:04;2.23;;;2.03;;
2542;SDS011;1116;51.502;7.414;2023-07-28T13:12:57;2.30;;;2.10;;
2542;SDS011;1116;51.502;7.414;2023-07-28T13:15:29;2.50;;;1.80;;
2542;SDS011;1116;51.502;7.414;2023-07-28T13:18:00;1.97;;;1.77;;
2542;SDS011;1116;51.502;7.414;2023-07-28T13:20:31;1.73;;;1.63;;
2542;SDS011;1116;51.502;7.414;2023-07-28T13:23:03;4.13;;;1.73;;
2542;SDS011;1116;51.502;7.414;2023-07-28T13:25:37;2.90;;;1.90;;
2542;SDS011;1116;51.502;7.414;2023-07-28T13:28:14;1.77;;;1.67;;
2542;SDS011;1116;51.502;7.414;2023-07-28T13:30:45;1.97;;;1.77;;
2542;SDS011;1116;51.502;7.414;2023-07-28T13:33:16;1.73;;;1.63;;
2542;SDS011;1116;51.502;7.414;2023-07-28T13:35:47;2.33;;;1.80;;
2542;SDS011;1116;51.502;7.414;2023-07-28T13:38:19;1.50;;;1.40;;
2542;SDS011;1116;51.502;7.414;2023-07-28T13:40:53;0.83;;;0.83;;
2542;SDS011;1116;51.502;7.414;2023-07-28T13:43:24;1.20;;;0.97;;
2542;SDS011;1116;51.502;7.414;2023-07-28T13:45:55;1.57;;;1.10;;
2542;SDS011;1116;51.502;7.414;2023-07-28T13:48:26;1.50;;;1.20;;
2542;SDS011;1116;51.502;7.414;2023-07-28T13:51:08;1.23;;;1.13;;
2542;SDS011;1116;51.502;7.414;2023-07-28T13:53:42;1.90;;;1.07;;
2542;SDS011;1116;51.502;7.414;2023-07-28T13:56:22;1.50;;;1.40;;
2542;SDS011;1116;51.502;7.414;2023-07-28T13:58:53;1.40;;;1.30;;
2542;SDS011;1116;51.502;7.414;2023-07-28T14:01:27;1.50;;;1.40;;
2542;SDS011;1116;51.502;7.414;2023-07-28T14:03:58;1.90;;;1.80;;
2542;SDS011;1116;51.502;7.414;2023-07-28T14:06:29;1.40;;;1.30;;
2542;SDS011;1116;51.502;7.414;2023-07-28T14:09:00;1.43;;;1.33;;
2542;SDS011;1116;51.502;7.414;2023-07-28T14:11:34;1.60;;;1.50;;
2542;SDS011;1116;51.502;7.414;2023-07-28T14:14:06;1.80;;;1.70;;
2542;SDS011;1116;51.502;7.414;2023-07-28T14:16:38;1.70;;;1.60;;
2542;SDS011;1116;51.502;7.414;2023-07-28T14:19:10;1.83;;;1.73;;
2542;SDS011;1116;51.502;7.414;2023-07-28T14:21:41;1.67;;;1.53;;
2542;SDS011;1116;51.502;7.414;2023-07-28T14:24:12;1.60;;;1.50;;
2542;SDS011;1116;51.502;7.414;2023-07-28T14:26:46;1.70;;;1.60;;
2542;SDS011;1116;51.502;7.414;2023-07-28T14:29:17;2.40;;;2.30;;
2542;SDS011;1116;51.502;7.414;2023-07-28T14:31:48;2.87;;;2.20;;
2542;SDS011;1116;51.502;7.414;2023-07-28T14:34:19;1.60;;;1.50;;
2542;SDS011;1116;51.502;7.414;2023-07-28T14:36:50;1.70;;;1.60;;
2542;SDS011;1116;51.502;7.414;2023-07-28T14:39:21;1.70;;;1.60;;
2542;SDS011;1116;51.502;7.414;2023-07-28T14:41:55;1.27;;;1.27;;
2542;SDS011;1116;51.502;7.414;2023-07-28T14:44:26;1.37;;;0.90;;
2542;SDS011;1116;51.502;7.414;2023-07-28T14:46:57;1.20;;;1.10;;
2542;SDS011;1116;51.502;7.414;2023-07-28T14:49:28;1.53;;;1.17;;
2542;SDS011;1116;51.502;7.414;2023-07-28T14:51:59;1.40;;;1.30;;
2542;SDS011;1116;51.502;7.414;2023-07-28T14:54:32;1.57;;;1.10;;
2542;SDS011;1116;51.502;7.414;2023-07-28T14:57:06;1.50;;;1.00;;
2542;SDS011;1116;51.502;7.414;2023-07-28T14:59:59;2.30;;;1.57;;
2542;SDS011;1116;51.502;7.414;2023-07-28T15:02:31;1.87;;;1.43;;
2542;SDS011;1116;51.502;7.414;2023-07-28T15:05:04;1.20;;;1.10;;
2542;SDS011;1116;51.502;7.414;2023-07-28T15:07:36;1.40;;;1.13;;
2542;SDS011;1116;51.502;7.414;2023-07-28T15:10:07;1.13;;;1.03;;
2542;SDS011;1116;51.502;7.414;2023-07-28T15:12:41;1.47;;;1.37;;
2542;SDS011;1116;51.502;7.414;2023-07-28T15:15:13;1.40;;;1.30;;
2542;SDS011;1116;51.502;7.414;2023-07-28T15:17:44;1.03;;;1.03;;
2542;SDS011;1116;51.502;7.414;2023-07-28T15:20:15;2.03;;;1.13;;
2542;SDS011;1116;51.502;7.414;2023-07-28T15:22:48;2.17;;;0.90;;
2542;SDS011;1116;51.502;7.414;2023-07-28T15:25:18;3.03;;;1.10;;
2542;SDS011;1116;51.502;7.414;2023-07-28T15:27:52;1.27;;;1.17;;
2542;SDS011;1116;51.502;7.414;2023-07-28T15:30:23;1.90;;;1.30;;
2542;SDS011;1116;51.502;7.414;2023-07-28T15:32:54;0.93;;;0.90;;
2542;SDS011;1116;51.502;7.414;2023-07-28T15:35:26;1.17;;;1.07;;
2542;SDS011;1116;51.502;7.414;2023-07-28T15:37:56;1.57;;;1.00;;
2542;SDS011;1116;51.502;7.414;2023-07-28T15:40:27;1.93;;;1.00;;
2542;SDS011;1116;51.502;7.414;2023-07-28T15:43:01;1.17;;;1.07;;
2542;SDS011;1116;51.502;7.414;2023-07-28T15:45:32;0.90;;;0.90;;
2542;SDS011;1116;51.502;7.414;2023-07-28T15:48:03;0.80;;;0.80;;
2542;SDS011;1116;51.502;7.414;2023-07-28T15:50:34;1.40;;;1.30;;
2542;SDS011;1116;51.502;7.414;2023-07-28T15:53:05;1.27;;;1.17;;